Bellingham, Washington
Current Conditions -  °F | °C
As of 12:53 AM on Friday 31 Oct 2014 (Local Time) from KBLI Reporting Station
Overcast Overcast  
Wind Chill: 53°   Ceiling: 5000
Heat Index: 53°   Visibility: 10mi
Dew Point: 49°   Wind: 5mph
Humidity: 86%   Direction: 120°ESE
Pressure: 29.76"   Gusts: NA
Location:  48.75°N, 122.47°W
Report Text: KBLI 310753Z AUTO 12004KT 10SM BKN050 OVC090 12/09 A2976 RMK AO2 RAE25 SLP083 P0001 T01170094 401670100
Loading
Personal Weather Stations






























Interactive Weather Map New forecast layout! Learn more

10-Day Weather Forecast

Advertisements
Track Severe Weather on mobile